Time;durP1;ratioP1;P1;durP2;ratioP2;P2;SDS_P1;SDS_P2;PMS_P1;PMS_P2;Temp;Humidity;BMP_temperature;BMP_pressure;BME280_temperature;BME280_humidity;BME280_pressure;Samples;Min_cycle;Max_cycle;Signal;HPM_P1;HPM_P2
2023/05/18 00:01:07;;;;;;;27.48;20.17;;;29.20;90.90;;;;;;1845311;76;21131;-82
2023/05/18 00:03:42;;;;;;;30.00;21.75;;;29.20;90.80;;;;;;1846011;76;21134;-81
2023/05/18 00:06:13;;;;;;;33.88;22.25;;;29.30;90.90;;;;;;1844435;76;21087;-81
2023/05/18 00:08:45;;;;;;;26.55;20.35;;;29.30;90.70;;;;;;1837786;76;21222;-82
2023/05/18 00:11:17;;;;;;;27.87;21.65;;;29.30;90.90;;;;;;1840730;76;21233;-82
2023/05/18 00:13:49;;;;;;;31.80;21.60;;;29.40;90.90;;;;;;1845746;76;21179;-81
2023/05/18 00:16:20;;;;;;;29.35;20.92;;;29.40;90.70;;;;;;1828678;76;21282;-82
2023/05/18 00:18:53;;;;;;;25.80;21.25;;;29.50;90.50;;;;;;1851081;76;21084;-82
2023/05/18 00:21:29;;;;;;;29.60;19.80;;;29.50;90.50;;;;;;1822219;76;21605;-83
2023/05/18 00:24:01;;;;;;;27.40;19.62;;;29.60;90.30;;;;;;1805778;78;21635;-83
2023/05/18 00:26:33;;;;;;;28.20;19.35;;;29.60;90.30;;;;;;1836685;76;21252;-82
2023/05/18 00:29:04;;;;;;;26.02;20.43;;;29.60;90.30;;;;;;1840049;76;21163;-82
2023/05/18 00:31:38;;;;;;;29.45;19.67;;;29.70;90.40;;;;;;1838417;77;21261;-84
2023/05/18 00:34:13;;;;;;;34.38;22.25;;;29.80;90.30;;;;;;1831595;76;21456;-84
2023/05/18 00:36:46;;;;;;;32.35;22.62;;;29.80;90.40;;;;;;1836828;76;21076;-81
2023/05/18 00:39:18;;;;;;;29.10;21.27;;;29.90;90.30;;;;;;1835291;76;21132;-82
2023/05/18 00:41:51;;;;;;;24.15;19.62;;;29.90;90.30;;;;;;1835629;77;21233;-83
2023/05/18 00:44:25;;;;;;;29.30;20.20;;;30.00;90.30;;;;;;1838154;76;21839;-83
2023/05/18 00:46:56;;;;;;;31.73;19.80;;;30.10;90.10;;;;;;1842295;76;21543;-83
2023/05/18 00:49:31;;;;;;;;;;;30.10;90.00;;;;;;1833928;76;21124;-80
2023/05/18 00:52:06;;;;;;;29.00;19.80;;;30.20;89.90;;;;;;1833514;77;20200;-84
2023/05/18 00:54:39;;;;;;;23.38;18.98;;;30.30;89.70;;;;;;1829331;77;21150;-79
2023/05/18 00:57:12;;;;;;;29.02;19.05;;;30.30;88.90;;;;;;1842389;76;21828;-81
2023/05/18 00:59:47;;;;;;;43.92;19.35;;;30.40;88.90;;;;;;1820276;76;21383;-81
2023/05/18 01:02:20;;;;;;;33.53;19.27;;;30.50;88.90;;;;;;1837751;76;21185;-79
2023/05/18 01:04:53;;;;;;;28.50;19.20;;;30.60;88.50;;;;;;1797478;78;21191;-78
2023/05/18 01:07:27;;;;;;;26.37;20.05;;;30.70;88.60;;;;;;1846167;76;21073;-75
2023/05/18 01:10:01;;;;;;;25.97;18.82;;;30.70;88.10;;;;;;1844297;76;21253;-75
2023/05/18 01:12:46;;;;;;;25.27;18.27;;;30.80;88.00;;;;;;1840979;77;21084;-78
2023/05/18 01:15:24;;;;;;;26.95;17.95;;;30.90;87.70;;;;;;1827685;78;21108;-77
2023/05/18 01:18:16;;;;;;;29.32;17.50;;;31.00;87.10;;;;;;1838269;77;21773;-76
2023/05/18 01:21:10;;;;;;;25.50;17.92;;;31.00;87.00;;;;;;1851664;76;21610;-74
2023/05/18 01:24:02;;;;;;;33.90;18.27;;;31.10;87.00;;;;;;1840854;76;21112;-76
2023/05/18 01:26:37;;;;;;;32.65;17.82;;;31.30;86.40;;;;;;1837755;77;21233;-76
2023/05/18 01:29:12;;;;;;;26.37;18.10;;;31.30;85.70;;;;;;1837340;76;21087;-74
2023/05/18 01:31:47;;;;;;;26.15;18.07;;;31.40;85.70;;;;;;1829601;76;21122;-77
2023/05/18 01:34:23;;;;;;;33.02;18.48;;;31.40;85.70;;;;;;1829132;76;21705;-75
2023/05/18 01:36:58;;;;;;;21.90;16.15;;;31.50;85.80;;;;;;1836867;76;21069;-74
2023/05/18 01:39:32;;;;;;;21.42;15.80;;;31.60;84.20;;;;;;1822213;77;21111;-76
2023/05/18 01:42:13;;;;;;;25.77;15.90;;;31.70;83.80;;;;;;1832937;76;21145;-76
2023/05/18 01:44:50;;;;;;;23.55;16.65;;;31.70;83.40;;;;;;1837982;76;21131;-73
2023/05/18 01:47:25;;;;;;;31.80;16.90;;;31.90;82.80;;;;;;1846089;76;21153;-76
2023/05/18 01:50:08;;;;;;;23.65;15.58;;;32.00;83.10;;;;;;1841198;77;21140;-74
2023/05/18 01:52:43;;;;;;;25.52;16.85;;;32.10;81.80;;;;;;1840695;77;21773;-79
2023/05/18 01:55:19;;;;;;;25.68;16.27;;;32.20;81.20;;;;;;1834217;76;21091;-75
2023/05/18 01:57:52;;;;;;;22.82;16.30;;;32.30;81.50;;;;;;1825195;76;21182;-76
2023/05/18 02:00:25;;;;;;;27.25;17.12;;;32.40;81.90;;;;;;1823834;76;21253;-77
2023/05/18 02:02:57;;;;;;;25.05;15.60;;;32.50;81.70;;;;;;1845994;76;21235;-76
2023/05/18 02:05:31;;;;;;;21.97;15.78;;;32.60;81.00;;;;;;1840078;76;21172;-77
2023/05/18 02:08:05;;;;;;;23.70;15.53;;;32.70;80.10;;;;;;1834418;76;21148;-78
2023/05/18 02:10:42;;;;;;;22.65;16.00;;;32.80;80.50;;;;;;1862354;76;21708;-81
2023/05/18 02:13:14;;;;;;;23.75;15.13;;;32.90;80.20;;;;;;1843726;77;21115;-76
2023/05/18 02:15:50;;;;;;;;;;;33.00;79.10;;;;;;1846249;77;21122;-79
2023/05/18 02:18:22;;;;;;;28.65;15.20;;;33.10;77.80;;;;;;1846932;76;20195;-78
2023/05/18 02:21:01;;;;;;;27.73;14.68;;;33.20;77.20;;;;;;1855817;77;21174;-77
2023/05/18 02:23:36;;;;;;;25.62;14.75;;;33.20;75.90;;;;;;1842825;76;21815;-78
2023/05/18 02:26:09;;;;;;;27.25;15.18;;;33.30;77.00;;;;;;1805396;78;21158;-76
2023/05/18 02:28:45;;;;;;;27.98;16.93;;;33.40;76.00;;;;;;1828125;77;21154;-77
2023/05/18 02:31:18;;;;;;;27.17;16.87;;;33.40;76.10;;;;;;1842177;77;21178;-75
2023/05/18 02:33:52;;;;;;;25.97;16.40;;;33.50;76.10;;;;;;1835663;77;21170;-78
2023/05/18 02:36:24;;;;;;;25.50;15.88;;;33.60;75.30;;;;;;1850458;77;21118;-77
2023/05/18 02:38:57;;;;;;;22.13;16.07;;;33.70;75.50;;;;;;1845843;77;21769;-77
2023/05/18 02:41:30;;;;;;;25.55;15.35;;;33.70;75.00;;;;;;1851283;76;21158;-77
2023/05/18 02:44:07;;;;;;;22.60;15.28;;;33.70;74.60;;;;;;1842612;76;21774;-76
2023/05/18 02:46:39;;;;;;;24.23;15.68;;;33.70;75.60;;;;;;1844678;77;21519;-79
2023/05/18 02:49:11;;;;;;;23.05;14.87;;;33.70;75.50;;;;;;1859461;76;21616;-84
2023/05/18 02:51:43;;;;;;;22.17;14.45;;;33.80;74.20;;;;;;1813756;78;21537;-79
2023/05/18 02:54:16;;;;;;;21.68;14.47;;;33.90;74.00;;;;;;1852504;76;21670;-79
2023/05/18 02:56:48;;;;;;;19.90;15.05;;;34.00;74.00;;;;;;1805576;78;21231;-75
2023/05/18 02:59:25;;;;;;;19.05;14.07;;;34.10;72.80;;;;;;1835578;77;21223;-74
2023/05/18 03:01:58;;;;;;;32.33;15.23;;;34.20;72.00;;;;;;1836393;77;21795;-79
2023/05/18 03:04:29;;;;;;;24.15;13.90;;;34.30;70.10;;;;;;1846015;77;21096;-78
2023/05/18 03:07:02;;;;;;;20.08;13.85;;;34.40;69.50;;;;;;1808841;78;21255;-76
2023/05/18 03:09:37;;;;;;;;;;;34.40;67.60;;;;;;1849084;76;21590;-77
2023/05/18 03:12:10;;;;;;;19.42;13.88;;;34.40;67.50;;;;;;1831439;76;20537;-77
2023/05/18 03:14:44;;;;;;;21.23;13.30;;;34.40;68.50;;;;;;1807027;78;21088;-77
2023/05/18 03:17:25;;;;;;;18.82;13.70;;;34.50;68.00;;;;;;1834621;76;21229;-78
2023/05/18 03:19:58;;;;;;;17.90;13.13;;;34.70;67.70;;;;;;1833354;76;21134;-76
2023/05/18 03:22:32;;;;;;;17.37;13.43;;;34.70;65.80;;;;;;1831230;76;21107;-78
2023/05/18 03:25:09;;;;;;;20.23;12.63;;;34.70;66.50;;;;;;1849609;76;21088;-78
2023/05/18 03:27:42;;;;;;;21.30;14.58;;;34.70;66.70;;;;;;1844550;76;21079;-78
2023/05/18 03:30:17;;;;;;;24.18;14.47;;;34.70;67.60;;;;;;1813031;78;21160;-80
2023/05/18 03:32:50;;;;;;;19.48;13.00;;;34.80;67.60;;;;;;1814107;78;21518;-76
2023/05/18 03:35:28;;;;;;;35.08;14.30;;;34.90;65.80;;;;;;1781256;79;21117;-81
2023/05/18 03:38:03;;;;;;;23.47;14.07;;;35.10;65.50;;;;;;1790357;78;21189;-77
2023/05/18 03:40:38;;;;;;;23.35;14.03;;;35.20;66.20;;;;;;1817080;78;21096;-77
2023/05/18 03:43:11;;;;;;;21.13;13.60;;;35.30;65.60;;;;;;1810144;78;21435;-79
2023/05/18 03:45:44;;;;;;;33.67;14.78;;;35.40;65.20;;;;;;1840800;76;21590;-76
2023/05/18 03:48:22;;;;;;;28.62;14.20;;;35.50;64.70;;;;;;1827486;76;21210;-77
2023/05/18 03:50:58;;;;;;;20.80;14.70;;;35.60;64.40;;;;;;1815783;78;21475;-76
2023/05/18 03:53:32;;;;;;;23.32;14.78;;;35.70;63.90;;;;;;1811957;78;21115;-76
2023/05/18 03:56:06;;;;;;;19.25;14.13;;;35.80;63.10;;;;;;1800172;78;21112;-78
2023/05/18 03:58:41;;;;;;;21.75;14.40;;;35.80;63.70;;;;;;1815484;78;21087;-76
2023/05/18 04:01:17;;;;;;;19.48;14.98;;;35.80;64.10;;;;;;1808347;78;21966;-75
2023/05/18 04:03:55;;;;;;;22.05;13.70;;;35.90;62.70;;;;;;1801199;78;21242;-76
2023/05/18 04:06:29;;;;;;;20.72;14.10;;;35.90;61.70;;;;;;1804471;78;21174;-73
2023/05/18 04:09:03;;;;;;;22.42;13.98;;;35.90;62.70;;;;;;1791414;79;21122;-75
2023/05/18 04:11:39;;;;;;;20.92;14.43;;;36.00;62.30;;;;;;1781477;79;21173;-76
2023/05/18 04:14:15;;;;;;;18.17;13.88;;;35.90;63.40;;;;;;1800595;78;21248;-74
2023/05/18 04:16:49;;;;;;;16.57;13.22;;;35.90;63.00;;;;;;1803911;78;21622;-78
2023/05/18 04:19:22;;;;;;;20.65;14.05;;;36.00;63.60;;;;;;1792425;78;21131;-75
2023/05/18 04:21:56;;;;;;;23.18;13.20;;;36.00;61.80;;;;;;1783819;79;21250;-77
2023/05/18 04:24:33;;;;;;;22.00;14.15;;;36.00;62.60;;;;;;1790640;79;21239;-77
2023/05/18 04:27:05;;;;;;;27.70;14.53;;;36.00;62.60;;;;;;1807180;78;21245;-74
2023/05/18 04:29:42;;;;;;;35.63;15.23;;;36.10;61.90;;;;;;1796435;78;21194;-74
2023/05/18 04:32:17;;;;;;;20.08;14.35;;;36.20;61.90;;;;;;1793775;78;21281;-76
2023/05/18 04:34:49;;;;;;;25.17;14.13;;;36.30;61.50;;;;;;1799781;78;21142;-77
2023/05/18 04:37:21;;;;;;;23.85;14.25;;;36.20;62.30;;;;;;1845443;76;21100;-76
2023/05/18 04:40:00;;;;;;;19.95;13.68;;;36.30;61.30;;;;;;1856430;76;21187;-82
2023/05/18 04:42:36;;;;;;;16.52;13.62;;;36.30;61.70;;;;;;1851488;76;21654;-76
2023/05/18 04:45:11;;;;;;;18.07;13.48;;;36.40;60.70;;;;;;1809905;78;21216;-77
2023/05/18 04:47:46;;;;;;;22.45;14.78;;;36.40;62.40;;;;;;1791203;78;21175;-80
2023/05/18 04:50:26;;;;;;;23.12;14.43;;;36.40;61.50;;;;;;1790831;79;21091;-78
2023/05/18 04:53:06;;;;;;;18.75;13.53;;;36.40;61.50;;;;;;1808508;78;21109;-78
2023/05/18 04:55:36;;;;;;;19.80;13.78;;;36.50;60.40;;;;;;1793023;78;21245;-77
2023/05/18 04:58:13;;;;;;;22.42;13.58;;;36.50;61.90;;;;;;1799150;78;21160;-80
2023/05/18 05:00:49;;;;;;;18.02;12.75;;;36.60;59.80;;;;;;1800874;78;21190;-75
2023/05/18 05:03:24;;;;;;;23.35;14.47;;;36.60;60.20;;;;;;1792699;78;21732;-76
2023/05/18 05:06:01;;;;;;;20.60;14.13;;;36.70;59.60;;;;;;1796797;78;21217;-76
2023/05/18 05:08:53;;;;;;;19.48;13.50;;;36.80;59.40;;;;;;1808056;79;21610;-75
2023/05/18 05:11:25;;;;;;;20.82;13.53;;;36.80;60.20;;;;;;1756052;79;21680;-79
2023/05/18 05:13:58;;;;;;;24.12;13.15;;;36.80;58.10;;;;;;1767428;80;21166;-76
2023/05/18 05:16:39;;;;;;;19.48;13.43;;;36.80;58.70;;;;;;1808046;78;21148;-78
2023/05/18 05:19:10;;;;;;;;;;;36.90;57.20;;;;;;1800856;78;21692;-79
2023/05/18 05:21:43;;;;;;;15.53;12.13;;;36.90;59.00;;;;;;1754914;80;20139;-77
2023/05/18 05:24:16;;;;;;;21.55;12.73;;;36.90;56.40;;;;;;1804443;78;21192;-76
2023/05/18 05:26:48;;;;;;;20.23;12.03;;;36.90;57.40;;;;;;1812525;78;21145;-76
2023/05/18 05:29:21;;;;;;;18.32;12.28;;;37.00;56.90;;;;;;1762248;80;21154;-75
2023/05/18 05:31:53;;;;;;;18.50;12.63;;;37.00;56.50;;;;;;1762310;80;21169;-73
2023/05/18 05:34:28;;;;;;;20.90;13.08;;;37.00;57.10;;;;;;1759672;80;21178;-79
2023/05/18 05:37:00;;;;;;;24.57;13.40;;;37.00;56.60;;;;;;1761430;80;21123;-76
2023/05/18 05:39:32;;;;;;;20.27;13.15;;;37.00;57.40;;;;;;1792063;79;21066;-76
2023/05/18 05:42:07;;;;;;;21.25;13.40;;;37.10;56.60;;;;;;1762111;80;21188;-74
2023/05/18 05:44:39;;;;;;;17.12;12.80;;;37.10;55.40;;;;;;1750802;80;21319;-79
2023/05/18 05:47:12;;;;;;;15.48;12.00;;;37.10;54.00;;;;;;1753151;80;21133;-75
2023/05/18 05:49:45;;;;;;;21.07;12.43;;;37.10;55.20;;;;;;1729798;81;21152;-79
2023/05/18 05:52:18;;;;;;;17.80;12.05;;;37.10;54.70;;;;;;1737542;81;21253;-75
2023/05/18 05:54:52;;;;;;;18.02;12.10;;;37.10;55.80;;;;;;1756327;79;21184;-77
2023/05/18 05:57:26;;;;;;;21.55;12.90;;;37.10;55.80;;;;;;1756663;81;21174;-74
2023/05/18 06:00:00;;;;;;;17.42;12.10;;;37.10;56.20;;;;;;1718606;82;21233;-77
2023/05/18 06:02:34;;;;;;;18.23;12.33;;;37.10;57.10;;;;;;1713843;82;21209;-77
2023/05/18 06:05:07;;;;;;;19.62;12.58;;;37.20;56.30;;;;;;1756450;80;21187;-76
2023/05/18 06:07:40;;;;;;;18.92;12.40;;;37.30;55.50;;;;;;1752577;80;21225;-73
2023/05/18 06:10:14;;;;;;;18.98;13.10;;;37.20;55.60;;;;;;1750586;80;21144;-76
2023/05/18 06:12:47;;;;;;;27.58;13.10;;;37.30;55.10;;;;;;1751223;80;21151;-75
2023/05/18 06:15:21;;;;;;;28.65;12.88;;;37.30;54.80;;;;;;1762538;80;21136;-77
2023/05/18 06:17:58;;;;;;;23.47;12.90;;;37.20;54.50;;;;;;1763453;80;21636;-75
2023/05/18 06:20:31;;;;;;;18.15;11.38;;;37.30;53.80;;;;;;1801380;78;21762;-79
2023/05/18 06:23:04;;;;;;;17.57;12.20;;;37.30;52.70;;;;;;1807221;79;21608;-77
2023/05/18 06:25:36;;;;;;;17.05;11.43;;;37.30;53.20;;;;;;1809007;78;21887;-74
2023/05/18 06:28:19;;;;;;;19.65;12.90;;;37.40;53.00;;;;;;1743745;82;21157;-76
2023/05/18 06:30:54;;;;;;;23.53;12.90;;;37.40;52.30;;;;;;1742987;80;21138;-78
2023/05/18 06:33:27;;;;;;;18.17;12.73;;;37.40;52.60;;;;;;1750573;80;21106;-76
2023/05/18 06:35:58;;;;;;;26.90;13.70;;;37.40;53.30;;;;;;1727838;82;21141;-76
2023/05/18 06:38:35;;;;;;;20.85;12.00;;;37.40;52.70;;;;;;1755555;81;21219;-75
2023/05/18 06:41:08;;;;;;;17.75;12.63;;;37.40;51.90;;;;;;1756441;80;21176;-77
2023/05/18 06:43:48;;;;;;;21.75;12.25;;;37.40;53.50;;;;;;1775229;79;21141;-75
2023/05/18 06:46:21;;;;;;;18.02;13.03;;;37.40;52.80;;;;;;1710776;83;21159;-75
2023/05/18 06:48:53;;;;;;;18.95;13.03;;;37.40;53.70;;;;;;1721567;81;21200;-74
2023/05/18 06:51:25;;;;;;;16.25;12.15;;;37.40;53.90;;;;;;1751816;80;21268;-75
2023/05/18 06:54:00;;;;;;;20.17;12.95;;;37.30;52.90;;;;;;1768853;79;21623;-77
2023/05/18 06:56:33;;;;;;;23.70;13.20;;;37.30;52.00;;;;;;1771974;79;21149;-76
2023/05/18 06:59:05;;;;;;;25.80;14.00;;;37.20;53.90;;;;;;1753235;81;21589;-73
2023/05/18 07:01:37;;;;;;;19.55;14.28;;;37.20;55.50;;;;;;1743927;80;21114;-77
2023/05/18 07:04:12;;;;;;;22.82;13.05;;;37.20;55.20;;;;;;1751904;81;21166;-79
2023/05/18 07:06:44;;;;;;;17.97;12.83;;;37.20;54.90;;;;;;1754884;80;21629;-75
2023/05/18 07:09:22;;;;;;;26.00;13.20;;;37.00;54.60;;;;;;1754736;80;21242;-77
2023/05/18 07:11:49;;;;;;;19.17;13.10;;;36.90;53.80;;;;;;1767736;80;21190;-75
2023/05/18 07:14:22;;;;;;;19.12;13.28;;;36.80;54.30;;;;;;1774220;80;21154;-77
2023/05/18 07:16:55;;;;;;;25.20;13.65;;;36.80;56.10;;;;;;1746194;81;21704;-75
2023/05/18 07:19:29;;;;;;;21.97;14.63;;;36.80;56.60;;;;;;1750402;81;21236;-77
2023/05/18 07:22:06;;;;;;;24.07;14.50;;;36.80;57.30;;;;;;1767416;80;21179;-75
2023/05/18 07:24:39;;;;;;;20.55;14.43;;;36.80;56.50;;;;;;1790956;80;21127;-77
2023/05/18 07:27:13;;;;;;;22.17;13.00;;;36.90;55.80;;;;;;1770385;81;22398;-78
2023/05/18 07:29:45;;;;;;;20.68;13.45;;;37.00;54.10;;;;;;1785046;80;21159;-76
2023/05/18 07:32:19;;;;;;;22.52;13.40;;;37.00;53.80;;;;;;1778064;79;21106;-76
2023/05/18 07:34:51;;;;;;;19.65;13.20;;;37.00;54.00;;;;;;1730400;82;21646;-79
2023/05/18 07:37:23;;;;;;;18.95;14.47;;;37.00;54.70;;;;;;1722509;82;21654;-78
2023/05/18 07:39:57;;;;;;;17.55;13.03;;;37.10;54.60;;;;;;1742251;81;21170;-79
2023/05/18 07:42:32;;;;;;;29.05;13.95;;;37.00;54.80;;;;;;1722504;82;21163;-78
2023/05/18 07:45:14;;;;;;;20.80;13.65;;;37.00;54.80;;;;;;1731349;81;21159;-77
2023/05/18 07:47:49;;;;;;;23.33;12.93;;;37.10;54.40;;;;;;1769732;80;21094;-79
2023/05/18 07:50:21;;;;;;;23.92;13.20;;;37.20;53.10;;;;;;1764429;81;21614;-77
2023/05/18 07:52:54;;;;;;;21.52;13.78;;;37.20;53.40;;;;;;1771200;80;21161;-77
2023/05/18 07:55:25;;;;;;;19.67;12.75;;;37.30;54.10;;;;;;1769052;80;21627;-75
2023/05/18 07:58:04;;;;;;;23.75;14.00;;;37.30;53.10;;;;;;1762798;79;21263;-80
2023/05/18 08:00:34;;;;;;;22.35;13.03;;;37.30;53.70;;;;;;1766599;80;21703;-77
2023/05/18 08:03:07;;;;;;;20.35;12.33;;;37.30;53.00;;;;;;1772397;80;21074;-76
2023/05/18 08:05:41;;;;;;;15.03;12.47;;;37.30;53.10;;;;;;1762851;81;21170;-74
2023/05/18 08:08:15;;;;;;;16.82;12.68;;;37.20;53.20;;;;;;1764279;80;21185;-78
2023/05/18 08:10:51;;;;;;;23.87;13.65;;;37.10;52.80;;;;;;1759141;80;21170;-76
2023/05/18 08:13:32;;;;;;;22.60;13.60;;;37.10;53.60;;;;;;1755446;81;21099;-78
2023/05/18 08:16:06;;;;;;;19.70;13.85;;;37.20;54.20;;;;;;1761595;80;21613;-78
2023/05/18 08:18:39;;;;;;;17.48;13.03;;;37.20;54.00;;;;;;1817583;77;21206;-77
2023/05/18 08:21:12;;;;;;;22.30;13.28;;;37.20;53.60;;;;;;1817428;77;21155;-76
2023/05/18 08:23:46;;;;;;;18.15;12.90;;;37.20;52.80;;;;;;1824547;77;21689;-76
2023/05/18 08:26:20;;;;;;;20.97;12.37;;;37.30;53.00;;;;;;1817961;77;21239;-78
2023/05/18 08:28:58;;;;;;;20.80;12.63;;;37.30;51.90;;;;;;1822516;77;21171;-76
2023/05/18 08:31:29;;;;;;;22.67;13.23;;;37.30;51.40;;;;;;1811638;78;21152;-77
2023/05/18 08:34:07;;;;;;;14.65;12.13;;;37.30;51.50;;;;;;1822258;78;21116;-75
2023/05/18 08:36:45;;;;;;;16.48;12.03;;;37.20;51.00;;;;;;1775968;80;21246;-77
2023/05/18 08:39:20;;;;;;;19.62;12.28;;;37.20;52.10;;;;;;1771494;80;21638;-77
2023/05/18 08:42:00;;;;;;;18.98;12.73;;;37.20;51.30;;;;;;1767984;80;21152;-76
2023/05/18 08:44:42;;;;;;;16.80;13.25;;;37.20;52.00;;;;;;1737475;82;21217;-76
2023/05/18 08:47:16;;;;;;;19.98;12.37;;;37.10;50.80;;;;;;1770352;80;21574;-76
2023/05/18 08:49:56;;;;;;;27.42;13.35;;;37.10;50.70;;;;;;1778555;80;21194;-78
2023/05/18 08:52:32;;;;;;;20.85;12.07;;;37.00;50.70;;;;;;1772418;80;21150;-78
2023/05/18 08:55:07;;;;;;;21.15;13.05;;;37.10;50.70;;;;;;1773692;80;21085;-75
2023/05/18 08:57:42;;;;;;;18.10;12.33;;;37.00;50.80;;;;;;1770200;80;21178;-79
2023/05/18 09:00:18;;;;;;;24.65;14.33;;;37.00;50.90;;;;;;1792490;80;21113;-75
2023/05/18 09:02:55;;;;;;;21.00;13.28;;;36.90;52.10;;;;;;1771810;81;21248;-77
2023/05/18 09:05:28;;;;;;;19.48;13.22;;;36.90;52.10;;;;;;1758225;81;21252;-78
2023/05/18 09:08:00;;;;;;;17.37;12.63;;;36.80;51.80;;;;;;1756013;81;21196;-79
2023/05/18 09:10:39;;;;;;;23.52;13.68;;;36.80;52.10;;;;;;1757073;80;21271;-76
2023/05/18 09:13:12;;;;;;;22.65;12.78;;;36.90;52.90;;;;;;1734467;82;21176;-77
2023/05/18 09:15:45;;;;;;;19.85;12.40;;;36.90;51.00;;;;;;1803001;79;21660;-76
2023/05/18 09:18:19;;;;;;;19.95;12.20;;;36.90;51.30;;;;;;1774529;80;21210;-79
2023/05/18 09:20:53;;;;;;;23.15;12.53;;;36.90;50.80;;;;;;1760693;80;21142;-76
2023/05/18 09:23:27;;;;;;;20.77;12.07;;;36.90;51.00;;;;;;1800026;78;21202;-77
2023/05/18 09:26:03;;;;;;;21.15;12.55;;;36.80;51.10;;;;;;1801182;79;21171;-77
2023/05/18 09:28:40;;;;;;;17.30;12.45;;;36.80;50.90;;;;;;1800695;78;21098;-74
2023/05/18 09:31:19;;;;;;;18.45;12.13;;;36.80;51.40;;;;;;1805204;78;21182;-74
2023/05/18 09:33:54;;;;;;;19.40;12.00;;;36.70;52.00;;;;;;1802061;79;21510;-77
2023/05/18 09:36:29;;;;;;;21.25;12.88;;;36.70;51.70;;;;;;1796101;79;21674;-75
2023/05/18 09:39:04;;;;;;;15.55;11.88;;;36.60;51.70;;;;;;1799076;78;21225;-78
2023/05/18 09:41:38;;;;;;;17.98;11.55;;;36.60;52.00;;;;;;1801116;79;21175;-77
2023/05/18 09:44:11;;;;;;;19.55;12.90;;;36.60;51.30;;;;;;1799929;79;21640;-78
2023/05/18 09:46:49;;;;;;;18.05;13.03;;;36.60;51.10;;;;;;1802406;78;21113;-77
2023/05/18 09:49:24;;;;;;;23.75;12.70;;;36.60;51.40;;;;;;1805618;78;21628;-75
2023/05/18 09:52:00;;;;;;;23.52;12.05;;;36.60;51.70;;;;;;1802455;78;21133;-77
2023/05/18 09:54:32;;;;;;;;;;;36.60;51.40;;;;;;1779715;80;21132;-76
2023/05/18 09:57:06;;;;;;;25.37;16.75;;;36.60;52.60;;;;;;1733127;81;20141;-75
2023/05/18 09:59:38;;;;;;;25.80;13.45;;;36.50;51.60;;;;;;1801550;79;21114;-77
2023/05/18 10:02:14;;;;;;;20.23;13.38;;;36.50;51.20;;;;;;1802606;78;21186;-75
2023/05/18 10:04:47;;;;;;;19.32;13.43;;;36.50;52.20;;;;;;1803398;78;21922;-76
2023/05/18 10:07:18;;;;;;;19.00;12.25;;;36.50;52.20;;;;;;1808270;78;21181;-76
2023/05/18 10:09:53;;;;;;;17.23;12.43;;;36.50;52.20;;;;;;1803275;78;21104;-76
2023/05/18 10:12:29;;;;;;;19.35;13.22;;;36.50;51.80;;;;;;1804498;78;21690;-81
2023/05/18 10:15:00;;;;;;;21.87;13.78;;;36.50;51.90;;;;;;1809273;78;21081;-77
2023/05/18 10:17:34;;;;;;;18.10;12.33;;;36.40;51.80;;;;;;1812883;78;21780;-75
2023/05/18 10:20:10;;;;;;;17.65;12.40;;;36.40;52.00;;;;;;1810597;78;21581;-79
2023/05/18 10:22:44;;;;;;;15.75;12.23;;;36.40;51.30;;;;;;1810323;78;21223;-77
2023/05/18 10:25:22;;;;;;;16.20;11.93;;;36.30;51.20;;;;;;1815460;77;21578;-78
2023/05/18 10:28:00;;;;;;;18.32;14.47;;;36.30;51.10;;;;;;1812741;79;21177;-87
2023/05/18 10:30:40;;;;;;;21.10;13.62;;;36.30;51.80;;;;;;1812041;79;21137;-85
2023/05/18 10:36:29;;;;;;;23.85;12.63;;;36.30;51.60;;;;;;1806329;79;21683;-87
2023/05/18 10:39:09;;;;;;;20.65;12.90;;;36.30;51.80;;;;;;1815932;78;21145;-86
2023/05/18 10:41:46;;;;;;;19.50;13.83;;;36.20;51.60;;;;;;1812290;78;21154;-86
2023/05/18 10:44:36;;;;;;;21.82;13.20;;;36.20;52.20;;;;;;1808866;79;21192;-86
2023/05/18 10:47:11;;;;;;;16.65;12.93;;;36.20;52.10;;;;;;1813093;77;21149;-86
2023/05/18 10:49:45;;;;;;;23.12;14.00;;;36.20;52.70;;;;;;1810882;79;21225;-84
2023/05/18 10:52:32;;;;;;;;;;;;;;;;;;;;;
2023/05/18 10:55:11;;;;;;;15.13;13.08;;;36.10;52.60;;;;;;1756681;79;21123;-84
2023/05/18 10:58:00;;;;;;;24.45;13.43;;;36.10;52.60;;;;;;1808627;78;21179;-86
2023/05/18 11:00:53;;;;;;;21.57;13.45;;;36.10;52.70;;;;;;1780315;78;21192;-85
2023/05/18 11:03:19;;;;;;;19.85;14.85;;;36.10;53.00;;;;;;1803654;79;21175;-87
2023/05/18 11:05:56;;;;;;;20.00;12.82;;;36.10;53.10;;;;;;1817393;77;21109;-86
2023/05/18 11:08:44;;;;;;;28.07;15.00;;;36.00;53.20;;;;;;1810690;78;21674;-88
2023/05/18 11:11:27;;;;;;;;;;;;;;;;;;;;;
2023/05/18 11:13:56;;;;;;;23.92;14.33;;;35.90;53.40;;;;;;1674399;84;21218;-88
2023/05/18 11:16:39;;;;;;;26.45;14.25;;;35.80;53.40;;;;;;1693446;84;21205;-85
2023/05/18 11:19:21;;;;;;;20.27;13.50;;;35.80;53.20;;;;;;1754098;79;21585;-88
2023/05/18 11:21:53;;;;;;;27.90;15.48;;;35.80;53.60;;;;;;1756685;81;21285;-87
2023/05/18 11:24:35;;;;;;;29.00;20.05;;;35.70;53.50;;;;;;1727012;81;21248;-86
2023/05/18 11:27:18;;;;;;;20.40;14.40;;;35.70;54.40;;;;;;1758324;81;21179;-87
2023/05/18 11:29:53;;;;;;;22.87;14.78;;;35.60;53.90;;;;;;1752213;81;21592;-86
2023/05/18 11:32:32;;;;;;;23.05;15.78;;;35.60;53.80;;;;;;1761267;80;21246;-85
2023/05/18 11:35:22;;;;;;;26.82;17.50;;;35.60;53.90;;;;;;1750886;80;21320;-86
2023/05/18 11:38:08;;;;;;;24.02;16.82;;;35.60;54.00;;;;;;1681336;81;21267;-86
2023/05/18 11:40:47;;;;;;;23.85;16.97;;;35.50;54.30;;;;;;1757829;81;21209;-85
2023/05/18 11:43:32;;;;;;;26.93;17.40;;;35.50;54.60;;;;;;1758223;81;21204;-87
2023/05/18 11:46:10;;;;;;;25.65;15.78;;;35.40;54.60;;;;;;1702200;82;22353;-87
2023/05/18 11:48:44;;;;;;;27.70;15.50;;;35.40;54.50;;;;;;1704228;83;21341;-87
2023/05/18 11:51:16;;;;;;;28.98;15.60;;;35.40;54.70;;;;;;1713620;83;21232;-86
2023/05/18 11:56:55;;;;;;;30.45;18.52;;;35.40;55.50;;;;;;1683616;82;21189;-86
2023/05/18 12:00:15;;;;;;;30.55;19.90;;;35.40;56.60;;;;;;1695778;84;21192;-87
2023/05/18 12:03:05;;;;;;;30.12;21.90;;;35.30;56.50;;;;;;1704860;84;21255;-87
2023/05/18 12:06:01;;;;;;;28.50;19.40;;;35.30;57.10;;;;;;1596446;84;21270;-89
2023/05/18 12:08:44;;;;;;;28.77;18.07;;;35.30;58.10;;;;;;1689649;83;21223;-89
2023/05/18 12:11:20;;;;;;;25.62;18.87;;;35.20;58.70;;;;;;1721451;82;21230;-86
2023/05/18 12:13:51;;;;;;;26.35;18.25;;;35.20;59.30;;;;;;1722859;81;21170;-88
2023/05/18 12:16:23;;;;;;;21.60;17.37;;;35.10;59.80;;;;;;1721805;83;21209;-87
2023/05/18 12:18:59;;;;;;;28.15;21.90;;;35.10;60.60;;;;;;1751872;82;21178;-89
2023/05/18 12:21:33;;;;;;;31.02;22.40;;;35.10;60.90;;;;;;1738015;82;21120;-88
2023/05/18 12:24:19;;;;;;;32.83;20.23;;;35.00;61.20;;;;;;1757355;80;21086;-87
2023/05/18 12:26:51;;;;;;;27.07;19.42;;;35.00;62.10;;;;;;1740171;82;21105;-87
2023/05/18 12:29:41;;;;;;;25.92;19.15;;;35.00;62.30;;;;;;1754528;80;21221;-86
2023/05/18 12:32:16;;;;;;;30.50;19.40;;;35.00;62.60;;;;;;1756289;80;21253;-87
2023/05/18 12:34:47;;;;;;;27.65;18.52;;;34.90;62.60;;;;;;1722255;81;21170;-86
2023/05/18 12:37:25;;;;;;;29.37;21.45;;;34.90;63.00;;;;;;1711698;83;21111;-90
2023/05/18 12:40:03;;;;;;;30.57;21.20;;;34.90;63.70;;;;;;1721954;82;21110;-88
2023/05/18 12:42:38;;;;;;;32.08;21.75;;;34.90;63.50;;;;;;1790280;79;21696;-88
2023/05/18 12:45:12;;;;;;;36.23;22.82;;;34.90;63.90;;;;;;1759709;80;21198;-88
2023/05/18 12:48:25;;;;;;;27.60;21.20;;;34.80;64.60;;;;;;1762245;80;21277;-89
2023/05/18 12:51:00;;;;;;;25.30;19.32;;;34.80;64.80;;;;;;1764251;80;21272;-87
2023/05/18 12:53:45;;;;;;;28.25;19.12;;;34.70;64.60;;;;;;1794943;79;21122;-87
2023/05/18 12:56:37;;;;;;;30.97;19.62;;;34.80;65.20;;;;;;1791962;79;21200;-87
2023/05/18 12:59:11;;;;;;;29.42;19.77;;;34.70;66.00;;;;;;1766424;80;21238;-87
2023/05/18 13:02:01;;;;;;;28.23;20.15;;;34.70;64.90;;;;;;1736294;81;21153;-87
2023/05/18 13:04:38;;;;;;;32.95;19.12;;;34.60;65.50;;;;;;1795507;79;21090;-87
2023/05/18 13:07:44;;;;;;;;;;;;;;;;;;;;;
2023/05/18 13:10:11;;;;;;;29.07;19.75;;;34.70;65.90;;;;;;1790147;79;21228;-87
2023/05/18 13:12:52;;;;;;;28.17;20.88;;;34.60;66.10;;;;;;1781676;79;21074;-87
2023/05/18 13:15:39;;;;;;;38.00;20.55;;;34.60;65.80;;;;;;1791376;78;21585;-87
2023/05/18 13:18:15;;;;;;;28.95;20.43;;;34.50;65.60;;;;;;1795315;79;21874;-86
2023/05/18 13:20:49;;;;;;;31.90;19.73;;;34.50;65.60;;;;;;1791107;79;21140;-86
2023/05/18 13:23:26;;;;;;;28.95;19.50;;;34.50;65.90;;;;;;1793129;79;21149;-86